createdAt,value
2018-05-23T00:00:05.127Z,74.75
2018-05-23T00:02:32.716Z,74.59
2018-05-23T00:05:00.669Z,73.59
2018-05-23T00:07:28.345Z,73.61
2018-05-23T00:09:56.252Z,73.58
2018-05-23T00:12:23.839Z,73.45
2018-05-23T00:14:51.550Z,73.32
2018-05-23T00:17:19.121Z,73.41
2018-05-23T00:19:46.699Z,73.84
2018-05-23T00:22:14.418Z,74.19
2018-05-23T00:24:42.041Z,74.24
2018-05-23T00:27:09.625Z,74.33
2018-05-23T00:29:37.233Z,74.35
2018-05-23T00:32:04.839Z,74.65
2018-05-23T00:34:32.730Z,74.80
2018-05-23T00:37:00.536Z,75.18
2018-05-23T00:39:28.123Z,75.26
2018-05-23T00:41:55.735Z,75.71
2018-05-23T00:44:23.438Z,75.68
2018-05-23T00:46:50.999Z,75.77
2018-05-23T00:49:18.567Z,75.86
2018-05-23T00:51:46.166Z,76.20
2018-05-23T00:54:13.729Z,76.42
2018-05-23T00:56:41.690Z,76.60
2018-05-23T00:59:09.568Z,77.01
2018-05-23T01:01:37.223Z,77.13
2018-05-23T01:04:05.135Z,77.15
2018-05-23T01:06:32.819Z,77.00
2018-05-23T01:09:00.481Z,76.95
2018-05-23T01:11:28.296Z,77.15
2018-05-23T01:13:55.968Z,77.32
2018-05-23T01:16:23.812Z,77.20
2018-05-23T01:18:51.831Z,77.11
2018-05-23T01:21:19.529Z,77.20
2018-05-23T01:23:47.124Z,77.49
2018-05-23T01:26:14.810Z,77.56
2018-05-23T01:28:42.837Z,77.79
2018-05-23T01:31:10.507Z,77.49
2018-05-23T01:33:38.062Z,77.71
2018-05-23T01:36:05.742Z,77.86
2018-05-23T01:38:33.546Z,77.74
2018-05-23T01:41:01.888Z,76.62
2018-05-23T01:43:29.446Z,76.52
2018-05-23T01:45:57.020Z,76.08
2018-05-23T01:48:24.668Z,75.91
2018-05-23T01:50:52.327Z,75.08
2018-05-23T01:53:20.395Z,74.90
2018-05-23T01:55:48.032Z,74.86
2018-05-23T01:58:15.593Z,74.78
2018-05-23T02:00:43.268Z,74.71
2018-05-23T02:03:11.129Z,73.66
2018-05-23T02:05:39.112Z,73.99
2018-05-23T02:08:06.689Z,74.23
2018-05-23T02:10:34.258Z,74.57
2018-05-23T02:13:01.905Z,74.94
2018-05-23T02:15:29.480Z,74.62
2018-05-23T02:17:57.177Z,74.81
2018-05-23T02:20:24.746Z,75.17
2018-05-23T02:22:52.316Z,75.12
2018-05-23T02:25:20.031Z,75.03
2018-05-23T02:27:47.836Z,75.01
2018-05-23T02:30:15.471Z,74.92
2018-05-23T02:32:43.089Z,74.84
2018-05-23T02:35:10.811Z,74.64
2018-05-23T02:37:38.402Z,73.59
2018-05-23T02:40:06.061Z,73.85
2018-05-23T02:42:33.762Z,74.42
2018-05-23T02:45:01.313Z,74.40
2018-05-23T02:47:29.155Z,74.72
2018-05-23T02:49:56.777Z,74.91
2018-05-23T02:52:24.844Z,74.65
2018-05-23T02:54:52.714Z,73.12
2018-05-23T02:57:20.326Z,73.36
2018-05-23T02:59:48.002Z,73.50
2018-05-23T03:02:15.615Z,73.47
2018-05-23T03:04:43.209Z,73.69
2018-05-23T03:07:10.871Z,74.14
2018-05-23T03:09:38.458Z,74.15
2018-05-23T03:12:06.052Z,73.82
2018-05-23T03:14:33.733Z,73.91
2018-05-23T03:17:01.310Z,73.94
2018-05-23T03:19:28.999Z,73.98
2018-05-23T03:21:56.606Z,73.68
2018-05-23T03:24:24.287Z,73.60
2018-05-23T03:26:52.286Z,73.17
2018-05-23T03:29:19.936Z,73.18
2018-05-23T03:31:47.601Z,73.01
2018-05-23T03:34:15.233Z,73.04
2018-05-23T03:36:42.881Z,73.13
2018-05-23T03:39:10.736Z,72.85
2018-05-23T03:41:38.434Z,72.90
2018-05-23T03:44:06.039Z,72.32
2018-05-23T03:46:33.719Z,72.66
2018-05-23T03:49:01.337Z,72.39
2018-05-23T03:51:29.612Z,72.64
2018-05-23T03:53:57.198Z,72.33
2018-05-23T03:56:24.769Z,72.34
2018-05-23T03:58:52.920Z,72.40
2018-05-23T04:01:32.079Z,72.43
2018-05-23T04:04:11.487Z,72.48
2018-05-23T04:06:50.704Z,72.50
2018-05-23T04:09:18.366Z,72.78
2018-05-23T04:11:46.000Z,72.71
2018-05-23T04:14:13.600Z,72.71
2018-05-23T04:16:41.280Z,72.78
2018-05-23T04:19:08.865Z,72.71
2018-05-23T04:21:36.495Z,72.53
2018-05-23T04:24:04.229Z,71.97
2018-05-23T04:26:32.029Z,71.81
2018-05-23T04:29:00.133Z,71.83
2018-05-23T04:31:27.751Z,71.78
2018-05-23T04:33:55.708Z,71.48
2018-05-23T04:36:23.303Z,71.64
2018-05-23T04:38:51.196Z,71.92
2018-05-23T04:41:18.808Z,71.77
2018-05-23T04:43:46.427Z,71.80
2018-05-23T04:46:14.012Z,71.64
2018-05-23T04:48:41.729Z,71.20
2018-05-23T04:51:09.372Z,70.68
2018-05-23T04:53:37.034Z,70.47
2018-05-23T04:56:05.045Z,70.04
2018-05-23T04:58:32.656Z,69.95
2018-05-23T05:01:00.361Z,69.73
2018-05-23T05:03:28.455Z,70.05
2018-05-23T05:05:56.075Z,70.21
2018-05-23T05:08:24.173Z,69.46
2018-05-23T05:10:52.000Z,69.34
2018-05-23T05:13:20.104Z,69.25
2018-05-23T05:15:47.814Z,69.19
2018-05-23T05:18:15.498Z,69.18
2018-05-23T05:20:43.612Z,69.07
2018-05-23T05:23:11.515Z,69.21
2018-05-23T05:25:39.155Z,68.37
2018-05-23T05:28:07.071Z,68.19
2018-05-23T05:30:34.721Z,68.02
2018-05-23T05:33:02.345Z,67.79
2018-05-23T05:35:29.999Z,68.22
2018-05-23T05:37:57.876Z,67.99
2018-05-23T05:40:25.658Z,68.08
2018-05-23T05:42:53.419Z,67.84
2018-05-23T05:45:21.190Z,67.66
2018-05-23T05:47:48.855Z,67.66
2018-05-23T05:50:16.996Z,67.14
2018-05-23T05:52:44.913Z,66.29
2018-05-23T05:55:12.758Z,67.29
2018-05-23T05:57:40.497Z,67.02
2018-05-23T06:00:08.221Z,65.67
2018-05-23T06:02:35.901Z,65.03
2018-05-23T06:05:03.994Z,66.62
2018-05-23T06:07:32.069Z,63.83
2018-05-23T06:09:59.769Z,64.33
2018-05-23T06:12:27.901Z,64.93
2018-05-23T06:14:55.559Z,64.97
2018-05-23T06:17:23.198Z,65.12
2018-05-23T06:19:51.096Z,66.02
2018-05-23T06:22:18.871Z,65.83
2018-05-23T06:24:46.500Z,66.14
2018-05-23T06:27:14.236Z,64.01
2018-05-23T06:29:42.035Z,63.06
2018-05-23T06:32:09.765Z,63.42
2018-05-23T06:34:37.453Z,63.95
2018-05-23T06:37:05.151Z,61.55
2018-05-23T06:39:32.835Z,61.86
2018-05-23T06:42:01.095Z,61.68
2018-05-23T06:44:28.757Z,60.66
2018-05-23T06:46:56.941Z,60.25
2018-05-23T06:49:24.615Z,59.08
2018-05-23T06:51:52.356Z,59.79
2018-05-23T06:54:19.944Z,60.58
2018-05-23T06:56:47.572Z,59.20
2018-05-23T06:59:15.496Z,59.41
2018-05-23T07:01:43.616Z,58.88
2018-05-23T07:04:11.577Z,59.34
2018-05-23T07:06:39.171Z,57.35
2018-05-23T07:09:06.762Z,58.85
2018-05-23T07:11:34.468Z,58.68
2018-05-23T07:14:02.179Z,58.76
2018-05-23T07:16:29.833Z,58.01
2018-05-23T07:18:57.533Z,59.38
2018-05-23T07:21:25.111Z,58.23
2018-05-23T07:23:52.808Z,57.48
2018-05-23T07:26:20.416Z,57.87
2018-05-23T07:28:48.142Z,55.14
2018-05-23T07:31:15.974Z,54.82
2018-05-23T07:33:44.488Z,56.61
2018-05-23T07:36:12.091Z,56.78
2018-05-23T07:38:39.922Z,57.30
2018-05-23T07:41:07.679Z,56.15
2018-05-23T07:43:35.550Z,57.03
2018-05-23T07:46:03.183Z,55.36
2018-05-23T07:48:30.783Z,55.66
2018-05-23T07:50:58.345Z,55.97
2018-05-23T07:53:26.070Z,56.13
2018-05-23T07:55:53.645Z,56.36
2018-05-23T07:58:21.230Z,55.42
2018-05-23T08:00:48.867Z,54.96
2018-05-23T08:03:16.457Z,54.78
2018-05-23T08:05:44.053Z,54.89
2018-05-23T08:08:12.043Z,55.04
2018-05-23T08:10:39.624Z,55.98
2018-05-23T08:13:07.204Z,56.32
2018-05-23T08:15:34.803Z,55.76
2018-05-23T08:18:02.376Z,55.36
2018-05-23T08:20:29.969Z,55.77
2018-05-23T08:22:57.545Z,53.61
2018-05-23T08:25:25.349Z,54.88
2018-05-23T08:27:53.352Z,54.25
2018-05-23T08:30:21.145Z,54.01
2018-05-23T08:32:48.820Z,53.91
2018-05-23T08:35:16.717Z,54.08
2018-05-23T08:37:44.315Z,53.13
2018-05-23T08:40:11.872Z,53.32
2018-05-23T08:42:39.798Z,53.17
2018-05-23T08:45:07.363Z,53.03
2018-05-23T08:47:34.916Z,52.32
2018-05-23T08:50:02.608Z,53.18
2018-05-23T08:52:30.422Z,53.54
2018-05-23T08:54:57.991Z,55.03
2018-05-23T08:57:25.740Z,51.68
2018-05-23T08:59:53.315Z,52.79
2018-05-23T09:02:20.941Z,52.89
2018-05-23T09:04:48.860Z,51.35
2018-05-23T09:07:16.700Z,52.61
2018-05-23T09:09:44.354Z,50.64
2018-05-23T09:12:15.617Z,50.64
2018-05-23T09:14:43.347Z,48.02
2018-05-23T09:17:10.971Z,47.94
2018-05-23T09:19:38.524Z,48.58
2018-05-23T09:22:07.059Z,48.83
2018-05-23T09:24:34.917Z,49.30
2018-05-23T09:27:02.505Z,47.05
2018-05-23T09:29:30.066Z,47.91
2018-05-23T09:31:57.984Z,47.50
2018-05-23T09:34:25.578Z,46.74
2018-05-23T09:36:53.147Z,46.83
2018-05-23T09:39:20.817Z,46.99
2018-05-23T09:41:48.375Z,47.48
2018-05-23T09:44:16.426Z,46.68
2018-05-23T09:46:43.987Z,47.78
2018-05-23T09:49:11.804Z,46.93
2018-05-23T09:51:39.636Z,48.49
2018-05-23T09:54:07.200Z,47.35
2018-05-23T09:56:34.901Z,46.08
2018-05-23T09:59:02.466Z,46.23
2018-05-23T10:01:30.037Z,46.95
2018-05-23T10:03:57.988Z,47.50
2018-05-23T10:06:25.784Z,48.53
2018-05-23T10:08:53.383Z,46.81
2018-05-23T10:11:21.018Z,46.94
2018-05-23T10:13:48.937Z,45.26
2018-05-23T10:16:16.498Z,46.52
2018-05-23T10:18:44.304Z,45.93
2018-05-23T10:21:12.386Z,45.76
2018-05-23T10:23:39.940Z,45.08
2018-05-23T10:26:07.495Z,45.43
2018-05-23T10:28:35.130Z,45.52
2018-05-23T10:31:02.784Z,46.34
2018-05-23T10:33:30.635Z,47.07
2018-05-23T10:35:58.207Z,46.34
2018-05-23T10:38:26.175Z,46.44
2018-05-23T10:40:53.800Z,43.64
2018-05-23T10:43:21.363Z,43.83
2018-05-23T10:45:49.252Z,42.88
2018-05-23T10:48:16.807Z,44.30
2018-05-23T10:50:44.570Z,43.74
2018-05-23T10:53:12.369Z,43.89
2018-05-23T10:55:40.223Z,45.19
2018-05-23T10:58:07.950Z,44.76
2018-05-23T11:00:35.517Z,43.71
2018-05-23T11:03:03.176Z,43.62
2018-05-23T11:05:30.696Z,44.08
2018-05-23T11:07:58.302Z,42.71
2018-05-23T11:10:26.083Z,44.11
2018-05-23T11:12:53.943Z,44.33
2018-05-23T11:15:21.543Z,44.13
2018-05-23T11:17:49.243Z,44.56
2018-05-23T11:20:16.813Z,44.87
2018-05-23T11:22:44.375Z,43.58
2018-05-23T11:25:12.093Z,42.33
2018-05-23T11:27:39.647Z,40.00
2018-05-23T11:30:07.208Z,42.49
2018-05-23T11:32:34.859Z,43.19
2018-05-23T11:35:02.562Z,42.79
2018-05-23T11:37:30.115Z,36.98
2018-05-23T11:39:57.668Z,34.50
2018-05-23T11:42:25.301Z,35.67
2018-05-23T11:44:52.861Z,35.38
2018-05-23T11:47:20.616Z,35.52
2018-05-23T11:49:48.245Z,34.36
2018-05-23T11:52:15.887Z,32.98
2018-05-23T11:54:43.787Z,33.35
2018-05-23T11:57:11.325Z,33.78
2018-05-23T11:59:38.918Z,32.10
2018-05-23T12:02:06.490Z,31.80
2018-05-23T12:04:34.252Z,31.86
2018-05-23T12:07:01.808Z,31.78
2018-05-23T12:09:29.608Z,31.91
2018-05-23T12:11:57.347Z,31.99
2018-05-23T12:14:24.965Z,30.67
2018-05-23T12:16:52.613Z,31.05
2018-05-23T12:19:20.263Z,29.85
2018-05-23T12:21:47.828Z,28.31
2018-05-23T12:24:15.392Z,28.99
2018-05-23T12:26:42.965Z,29.57
2018-05-23T12:29:10.711Z,30.00
2018-05-23T12:31:38.276Z,29.55
2018-05-23T12:34:05.850Z,30.48
2018-05-23T12:36:33.436Z,30.49
2018-05-23T12:39:01.433Z,30.60
2018-05-23T12:41:29.002Z,30.37
2018-05-23T12:43:56.861Z,31.10
2018-05-23T12:46:24.444Z,31.32
2018-05-23T12:48:52.146Z,31.21
2018-05-23T12:51:19.704Z,31.33
2018-05-23T12:53:47.371Z,30.40
2018-05-23T12:56:15.092Z,29.52
2018-05-23T12:58:42.657Z,28.99
2018-05-23T13:01:10.244Z,29.54
2018-05-23T13:03:37.909Z,29.96
2018-05-23T13:06:05.785Z,31.11
2018-05-23T13:08:33.327Z,30.24
2018-05-23T13:11:01.019Z,29.91
2018-05-23T13:13:28.813Z,31.60
2018-05-23T13:15:56.380Z,30.80
2018-05-23T13:18:23.988Z,30.88
2018-05-23T13:20:51.662Z,30.92
2018-05-23T13:23:19.286Z,31.40
2018-05-23T13:25:46.975Z,31.83
2018-05-23T13:28:14.544Z,31.73
2018-05-23T13:30:42.166Z,31.32
2018-05-23T13:33:09.845Z,31.99
2018-05-23T13:35:37.520Z,32.47
2018-05-23T13:38:05.120Z,32.63
2018-05-23T13:40:32.672Z,32.65
2018-05-23T13:43:00.598Z,33.64
2018-05-23T13:45:28.160Z,32.42
2018-05-23T13:47:55.808Z,32.08
2018-05-23T13:50:23.480Z,33.04
2018-05-23T13:52:51.406Z,32.40
2018-05-23T13:55:19.108Z,32.23
2018-05-23T13:57:47.138Z,31.82
2018-05-23T14:00:14.706Z,32.15
2018-05-23T14:02:46.156Z,32.26
2018-05-23T14:05:14.021Z,31.76
2018-05-23T14:07:41.637Z,30.68
2018-05-23T14:10:09.276Z,31.09
2018-05-23T14:12:36.892Z,30.98
2018-05-23T14:15:04.470Z,31.87
2018-05-23T14:17:32.481Z,31.24
2018-05-23T14:20:00.052Z,30.82
2018-05-23T14:22:27.632Z,30.63
2018-05-23T14:24:55.472Z,29.69
2018-05-23T14:27:23.059Z,31.79
2018-05-23T14:29:50.717Z,30.74
2018-05-23T14:32:18.349Z,30.91
2018-05-23T14:34:46.172Z,29.06
2018-05-23T14:37:13.781Z,29.74
2018-05-23T14:39:41.444Z,29.52
2018-05-23T14:42:09.299Z,27.34
2018-05-23T14:44:36.889Z,27.80
2018-05-23T14:47:04.468Z,28.12
2018-05-23T14:49:32.089Z,26.75
2018-05-23T14:51:59.730Z,26.36
2018-05-23T14:54:27.319Z,26.43
2018-05-23T14:56:54.930Z,27.48
2018-05-23T14:59:22.546Z,27.84
2018-05-23T15:01:50.122Z,27.25
2018-05-23T15:04:17.935Z,27.22
2018-05-23T15:06:45.526Z,27.37
2018-05-23T15:09:13.211Z,28.65
2018-05-23T15:11:40.802Z,27.88
2018-05-23T15:14:08.375Z,27.06
2018-05-23T15:16:35.982Z,28.23
2018-05-23T15:19:03.580Z,26.50
2018-05-23T15:21:31.239Z,26.96
2018-05-23T15:23:59.386Z,27.56
2018-05-23T15:26:26.967Z,27.01
2018-05-23T15:28:54.544Z,25.97
2018-05-23T15:31:22.197Z,26.57
2018-05-23T15:33:49.857Z,26.75
2018-05-23T15:36:17.436Z,26.14
2018-05-23T15:38:45.113Z,25.13
2018-05-23T15:41:12.781Z,26.57
2018-05-23T15:43:40.445Z,25.38
2018-05-23T15:46:08.364Z,26.52
2018-05-23T15:48:35.996Z,26.48
2018-05-23T15:51:03.636Z,26.55
2018-05-23T15:53:31.458Z,26.32
2018-05-23T15:55:59.087Z,26.62
2018-05-23T15:58:26.914Z,27.03
2018-05-23T16:00:54.527Z,26.50
2018-05-23T16:03:22.111Z,26.87
2018-05-23T16:05:50.247Z,26.83
2018-05-23T16:08:17.834Z,26.67
2018-05-23T16:10:45.408Z,26.76
2018-05-23T16:13:13.038Z,26.02
2018-05-23T16:15:40.870Z,26.28
2018-05-23T16:18:08.684Z,26.34
2018-05-23T16:20:36.470Z,26.80
2018-05-23T16:23:04.026Z,27.06
2018-05-23T16:25:31.656Z,27.94
2018-05-23T16:27:59.348Z,27.96
2018-05-23T16:30:26.988Z,28.52
2018-05-23T16:32:54.598Z,29.29
2018-05-23T16:35:22.208Z,28.32
2018-05-23T16:37:49.881Z,28.32
2018-05-23T16:40:17.516Z,28.60
2018-05-23T16:42:45.148Z,28.50
2018-05-23T16:45:12.724Z,29.00
2018-05-23T16:47:40.338Z,28.42
2018-05-23T16:50:08.375Z,28.67
2018-05-23T16:52:35.958Z,28.97
2018-05-23T16:55:03.533Z,28.72
2018-05-23T16:57:31.205Z,28.49
2018-05-23T16:59:58.893Z,28.40
2018-05-23T17:02:26.899Z,28.35
2018-05-23T17:04:54.563Z,28.04
2018-05-23T17:07:22.196Z,28.94
2018-05-23T17:09:49.833Z,30.18
2018-05-23T17:12:17.427Z,29.09
2018-05-23T17:14:45.235Z,29.57
2018-05-23T17:17:13.391Z,28.83
2018-05-23T17:19:40.934Z,30.68
2018-05-23T17:22:08.510Z,30.03
2018-05-23T17:24:36.178Z,29.14
2018-05-23T17:27:03.791Z,29.54
2018-05-23T17:29:31.476Z,29.87
2018-05-23T17:31:59.271Z,29.31
2018-05-23T17:34:26.851Z,28.82
2018-05-23T17:36:54.480Z,29.05
2018-05-23T17:39:22.091Z,28.69
2018-05-23T17:41:51.106Z,29.54
2018-05-23T17:44:18.689Z,29.29
2018-05-23T17:46:46.426Z,29.29
2018-05-23T17:49:14.362Z,29.94
2018-05-23T17:51:41.937Z,29.67
2018-05-23T17:54:10.462Z,29.91
2018-05-23T17:56:38.159Z,30.46
2018-05-23T17:59:05.873Z,30.15
2018-05-23T18:01:33.458Z,30.28
2018-05-23T18:04:01.051Z,31.07
2018-05-23T18:06:28.847Z,30.13
2018-05-23T18:08:56.605Z,30.12
2018-05-23T18:11:24.255Z,30.31
2018-05-23T18:13:52.113Z,30.45
2018-05-23T18:16:19.814Z,29.90
2018-05-23T18:18:47.700Z,30.02
2018-05-23T18:21:15.514Z,30.26
2018-05-23T18:23:43.171Z,30.76
2018-05-23T18:26:11.037Z,30.57
2018-05-23T18:28:38.659Z,30.72
2018-05-23T18:31:06.313Z,31.05
2018-05-23T18:33:33.918Z,31.47
2018-05-23T18:36:01.540Z,31.63
2018-05-23T18:38:29.164Z,32.16
2018-05-23T18:40:57.120Z,32.35
2018-05-23T18:43:25.048Z,32.54
2018-05-23T18:45:52.583Z,32.74
2018-05-23T18:48:20.520Z,32.95
2018-05-23T18:50:48.185Z,33.08
2018-05-23T18:53:15.779Z,33.20
2018-05-23T18:55:43.405Z,33.56
2018-05-23T18:58:11.107Z,33.64
2018-05-23T19:00:38.674Z,33.80
2018-05-23T19:03:06.251Z,33.97
2018-05-23T19:05:34.672Z,34.19
2018-05-23T19:08:02.285Z,34.24
2018-05-23T19:10:29.928Z,34.37
2018-05-23T19:12:57.612Z,34.49
2018-05-23T19:15:25.515Z,34.65
2018-05-23T19:17:53.121Z,35.05
2018-05-23T19:20:21.136Z,35.40
2018-05-23T19:22:48.733Z,35.48
2018-05-23T19:25:16.746Z,35.63
2018-05-23T19:27:44.353Z,35.90
2018-05-23T19:30:12.023Z,36.11
2018-05-23T19:32:39.733Z,36.28
2018-05-23T19:35:07.317Z,36.38
2018-05-23T19:37:34.930Z,36.47
2018-05-23T19:40:02.652Z,36.58
2018-05-23T19:42:30.250Z,36.87
2018-05-23T19:44:57.847Z,37.28
2018-05-23T19:47:25.731Z,37.45
2018-05-23T19:49:53.406Z,37.52
2018-05-23T19:52:21.149Z,37.53
2018-05-23T19:54:48.970Z,37.74
2018-05-23T19:57:16.576Z,38.33
2018-05-23T19:59:44.580Z,38.60
2018-05-23T20:02:12.205Z,38.99
2018-05-23T20:04:39.917Z,39.39
2018-05-23T20:07:07.577Z,39.57
2018-05-23T20:09:35.181Z,39.71
2018-05-23T20:12:03.742Z,39.71
2018-05-23T20:14:32.646Z,39.82
2018-05-23T20:17:00.271Z,40.04
2018-05-23T20:19:27.920Z,40.30
2018-05-23T20:21:55.467Z,40.58
2018-05-23T20:24:23.173Z,40.82
2018-05-23T20:26:50.729Z,41.15
2018-05-23T20:29:18.327Z,41.42
2018-05-23T20:31:45.904Z,41.72
2018-05-23T20:34:13.469Z,41.98
2018-05-23T20:36:41.510Z,42.32
2018-05-23T20:39:09.098Z,42.31
2018-05-23T20:41:36.670Z,42.60
2018-05-23T20:44:04.587Z,42.92
2018-05-23T20:46:32.158Z,43.14
2018-05-23T20:48:59.785Z,43.35
2018-05-23T20:51:27.385Z,43.46
2018-05-23T20:53:54.949Z,43.68
2018-05-23T20:56:22.553Z,44.61
2018-05-23T20:58:50.141Z,44.26
2018-05-23T21:01:18.072Z,44.69
2018-05-23T21:03:45.658Z,44.97
2018-05-23T21:06:13.231Z,44.98
2018-05-23T21:08:41.262Z,45.22
2018-05-23T21:11:08.827Z,45.54
2018-05-23T21:13:36.831Z,46.20
2018-05-23T21:16:04.482Z,46.24
2018-05-23T21:18:32.072Z,46.27
2018-05-23T21:20:59.663Z,46.79
2018-05-23T21:23:27.229Z,46.99
2018-05-23T21:25:55.400Z,47.55
2018-05-23T21:28:22.961Z,48.15
2018-05-23T21:30:50.556Z,48.36
2018-05-23T21:33:18.153Z,48.49
2018-05-23T21:35:46.057Z,48.61
2018-05-23T21:38:14.538Z,48.53
2018-05-23T21:40:42.402Z,48.71
2018-05-23T21:43:10.424Z,49.14
2018-05-23T21:45:37.985Z,49.54
2018-05-23T21:48:05.563Z,49.79
2018-05-23T21:50:33.187Z,49.88
2018-05-23T21:53:01.164Z,50.31
2018-05-23T21:55:29.176Z,50.08
2018-05-23T21:57:57.322Z,50.07
2018-05-23T22:00:25.453Z,50.45
2018-05-23T22:02:53.617Z,50.83
2018-05-23T22:05:21.465Z,50.98
2018-05-23T22:07:49.574Z,51.02
2018-05-23T22:10:17.793Z,51.39
2018-05-23T22:12:47.016Z,51.59
2018-05-23T22:15:15.109Z,51.28
2018-05-23T22:17:42.738Z,51.36
2018-05-23T22:20:10.408Z,51.21
2018-05-23T22:22:38.041Z,51.41
2018-05-23T22:25:05.638Z,51.40
2018-05-23T22:27:33.310Z,51.55
2018-05-23T22:30:01.190Z,51.65
2018-05-23T22:32:28.743Z,51.67
2018-05-23T22:34:56.321Z,51.81
2018-05-23T22:37:23.920Z,51.75
2018-05-23T22:39:51.476Z,51.69
2018-05-23T22:42:19.151Z,51.63
2018-05-23T22:44:46.735Z,51.55
2018-05-23T22:47:14.457Z,51.49
2018-05-23T22:49:42.102Z,51.50
2018-05-23T22:52:09.737Z,51.39
2018-05-23T22:54:37.754Z,51.27
2018-05-23T22:57:05.345Z,51.66
2018-05-23T22:59:33.209Z,51.57
2018-05-23T23:02:00.851Z,51.51
2018-05-23T23:04:28.460Z,51.63
2018-05-23T23:06:56.339Z,51.60
2018-05-23T23:09:23.902Z,51.74
2018-05-23T23:11:51.521Z,51.89
2018-05-23T23:14:19.330Z,51.85
2018-05-23T23:16:46.921Z,52.00
2018-05-23T23:19:14.504Z,51.90
2018-05-23T23:21:42.069Z,52.17
2018-05-23T23:24:09.697Z,52.10
2018-05-23T23:26:37.278Z,52.09
2018-05-23T23:29:04.836Z,52.17
2018-05-23T23:31:32.460Z,52.33
2018-05-23T23:34:00.185Z,52.58
2018-05-23T23:36:27.771Z,52.60
2018-05-23T23:38:55.378Z,52.56
2018-05-23T23:41:22.982Z,52.73
2018-05-23T23:43:50.603Z,52.46
2018-05-23T23:46:18.557Z,52.71
2018-05-23T23:48:46.173Z,53.00
2018-05-23T23:51:13.747Z,53.03
2018-05-23T23:53:41.525Z,53.14
2018-05-23T23:56:09.488Z,53.42
2018-05-23T23:58:37.068Z,53.33
